sensor_id;sensor_type;location;lat;lon;timestamp;P1;durP1;ratioP1;P2;durP2;ratioP2
1206;SDS011;593;53.184;8.216;2023-04-25T00:01:21;6.83;;;2.23;;
1206;SDS011;593;53.184;8.216;2023-04-25T00:03:47;10.07;;;2.53;;
1206;SDS011;593;53.184;8.216;2023-04-25T00:06:13;9.90;;;2.20;;
1206;SDS011;593;53.184;8.216;2023-04-25T00:08:39;9.77;;;2.90;;
1206;SDS011;593;53.184;8.216;2023-04-25T00:11:05;4.20;;;2.53;;
1206;SDS011;593;53.184;8.216;2023-04-25T00:13:30;9.73;;;2.90;;
1206;SDS011;593;53.184;8.216;2023-04-25T00:15:55;8.47;;;2.40;;
1206;SDS011;593;53.184;8.216;2023-04-25T00:18:21;7.63;;;3.97;;
1206;SDS011;593;53.184;8.216;2023-04-25T00:20:47;6.40;;;1.98;;
1206;SDS011;593;53.184;8.216;2023-04-25T00:23:16;13.00;;;2.73;;
1206;SDS011;593;53.184;8.216;2023-04-25T00:25:44;11.30;;;2.13;;
1206;SDS011;593;53.184;8.216;2023-04-25T00:28:11;10.38;;;2.90;;
1206;SDS011;593;53.184;8.216;2023-04-25T00:30:38;8.70;;;2.53;;
1206;SDS011;593;53.184;8.216;2023-04-25T00:33:04;7.50;;;2.60;;
1206;SDS011;593;53.184;8.216;2023-04-25T00:35:29;9.97;;;3.23;;
1206;SDS011;593;53.184;8.216;2023-04-25T00:37:54;13.53;;;2.83;;
1206;SDS011;593;53.184;8.216;2023-04-25T00:40:20;7.60;;;2.77;;
1206;SDS011;593;53.184;8.216;2023-04-25T00:42:45;4.93;;;2.10;;
1206;SDS011;593;53.184;8.216;2023-04-25T00:45:12;9.10;;;2.60;;
1206;SDS011;593;53.184;8.216;2023-04-25T00:47:39;9.23;;;2.70;;
1206;SDS011;593;53.184;8.216;2023-04-25T00:50:05;9.97;;;2.87;;
1206;SDS011;593;53.184;8.216;2023-04-25T00:52:31;9.50;;;2.30;;
1206;SDS011;593;53.184;8.216;2023-04-25T00:54:57;8.23;;;2.90;;
1206;SDS011;593;53.184;8.216;2023-04-25T00:57:22;10.07;;;2.90;;
1206;SDS011;593;53.184;8.216;2023-04-25T00:59:47;7.37;;;2.67;;
1206;SDS011;593;53.184;8.216;2023-04-25T01:02:15;10.07;;;2.47;;
1206;SDS011;593;53.184;8.216;2023-04-25T01:04:41;8.43;;;2.50;;
1206;SDS011;593;53.184;8.216;2023-04-25T01:07:06;6.77;;;2.40;;
1206;SDS011;593;53.184;8.216;2023-04-25T01:09:32;3.67;;;1.90;;
1206;SDS011;593;53.184;8.216;2023-04-25T01:11:57;12.70;;;2.60;;
1206;SDS011;593;53.184;8.216;2023-04-25T01:14:22;4.50;;;2.40;;
1206;SDS011;593;53.184;8.216;2023-04-25T01:16:48;5.63;;;2.03;;
1206;SDS011;593;53.184;8.216;2023-04-25T01:19:13;9.97;;;2.37;;
1206;SDS011;593;53.184;8.216;2023-04-25T01:21:41;8.32;;;2.28;;
1206;SDS011;593;53.184;8.216;2023-04-25T01:24:07;5.47;;;2.00;;
1206;SDS011;593;53.184;8.216;2023-04-25T01:26:33;13.70;;;2.47;;
1206;SDS011;593;53.184;8.216;2023-04-25T01:28:59;5.50;;;2.60;;
1206;SDS011;593;53.184;8.216;2023-04-25T01:31:26;9.63;;;2.57;;
1206;SDS011;593;53.184;8.216;2023-04-25T01:33:52;10.20;;;2.28;;
1206;SDS011;593;53.184;8.216;2023-04-25T01:36:18;6.10;;;3.03;;
1206;SDS011;593;53.184;8.216;2023-04-25T01:38:44;10.23;;;2.53;;
1206;SDS011;593;53.184;8.216;2023-04-25T01:41:11;7.70;;;2.60;;
1206;SDS011;593;53.184;8.216;2023-04-25T01:43:36;9.80;;;3.50;;
1206;SDS011;593;53.184;8.216;2023-04-25T01:46:01;7.30;;;2.37;;
1206;SDS011;593;53.184;8.216;2023-04-25T01:48:27;6.83;;;2.13;;
1206;SDS011;593;53.184;8.216;2023-04-25T01:50:52;11.90;;;2.37;;
1206;SDS011;593;53.184;8.216;2023-04-25T01:53:18;6.37;;;1.93;;
1206;SDS011;593;53.184;8.216;2023-04-25T01:55:43;8.13;;;2.50;;
1206;SDS011;593;53.184;8.216;2023-04-25T01:58:08;4.83;;;1.83;;
1206;SDS011;593;53.184;8.216;2023-04-25T02:00:35;9.47;;;1.97;;
1206;SDS011;593;53.184;8.216;2023-04-25T02:03:03;5.40;;;1.80;;
1206;SDS011;593;53.184;8.216;2023-04-25T02:05:33;5.27;;;2.00;;
1206;SDS011;593;53.184;8.216;2023-04-25T02:08:04;5.40;;;1.85;;
1206;SDS011;593;53.184;8.216;2023-04-25T02:10:30;16.67;;;2.50;;
1206;SDS011;593;53.184;8.216;2023-04-25T02:12:56;3.43;;;2.37;;
1206;SDS011;593;53.184;8.216;2023-04-25T02:15:22;6.68;;;2.47;;
1206;SDS011;593;53.184;8.216;2023-04-25T02:17:47;10.13;;;2.90;;
1206;SDS011;593;53.184;8.216;2023-04-25T02:20:13;7.25;;;2.33;;
1206;SDS011;593;53.184;8.216;2023-04-25T02:22:40;7.15;;;2.00;;
1206;SDS011;593;53.184;8.216;2023-04-25T02:25:07;7.78;;;2.30;;
1206;SDS011;593;53.184;8.216;2023-04-25T02:27:32;4.63;;;2.10;;
1206;SDS011;593;53.184;8.216;2023-04-25T02:29:58;9.97;;;2.00;;
1206;SDS011;593;53.184;8.216;2023-04-25T02:32:23;6.73;;;3.20;;
1206;SDS011;593;53.184;8.216;2023-04-25T02:34:48;6.63;;;2.40;;
1206;SDS011;593;53.184;8.216;2023-04-25T02:37:14;9.40;;;2.50;;
1206;SDS011;593;53.184;8.216;2023-04-25T02:39:39;11.00;;;3.00;;
1206;SDS011;593;53.184;8.216;2023-04-25T02:42:04;7.73;;;2.27;;
1206;SDS011;593;53.184;8.216;2023-04-25T02:44:30;3.93;;;1.47;;
1206;SDS011;593;53.184;8.216;2023-04-25T02:46:55;5.23;;;1.93;;
1206;SDS011;593;53.184;8.216;2023-04-25T02:49:20;5.80;;;1.97;;
1206;SDS011;593;53.184;8.216;2023-04-25T02:51:46;4.73;;;1.77;;
1206;SDS011;593;53.184;8.216;2023-04-25T02:54:11;6.87;;;1.90;;
1206;SDS011;593;53.184;8.216;2023-04-25T02:56:36;6.67;;;2.27;;
1206;SDS011;593;53.184;8.216;2023-04-25T02:59:01;3.77;;;2.57;;
1206;SDS011;593;53.184;8.216;2023-04-25T03:01:27;5.50;;;1.97;;
1206;SDS011;593;53.184;8.216;2023-04-25T03:03:52;11.80;;;3.40;;
1206;SDS011;593;53.184;8.216;2023-04-25T03:06:18;9.60;;;1.97;;
1206;SDS011;593;53.184;8.216;2023-04-25T03:08:43;6.07;;;1.97;;
1206;SDS011;593;53.184;8.216;2023-04-25T03:11:08;7.97;;;1.83;;
1206;SDS011;593;53.184;8.216;2023-04-25T03:13:33;10.23;;;2.23;;
1206;SDS011;593;53.184;8.216;2023-04-25T03:15:59;3.70;;;2.13;;
1206;SDS011;593;53.184;8.216;2023-04-25T03:18:25;5.30;;;1.67;;
1206;SDS011;593;53.184;8.216;2023-04-25T03:20:51;5.30;;;1.43;;
1206;SDS011;593;53.184;8.216;2023-04-25T03:23:16;5.90;;;1.90;;
1206;SDS011;593;53.184;8.216;2023-04-25T03:25:41;10.20;;;2.17;;
1206;SDS011;593;53.184;8.216;2023-04-25T03:28:07;3.97;;;1.90;;
1206;SDS011;593;53.184;8.216;2023-04-25T03:30:32;5.27;;;2.33;;
1206;SDS011;593;53.184;8.216;2023-04-25T03:32:57;3.57;;;1.50;;
1206;SDS011;593;53.184;8.216;2023-04-25T03:35:23;9.47;;;1.70;;
1206;SDS011;593;53.184;8.216;2023-04-25T03:37:48;4.70;;;1.50;;
1206;SDS011;593;53.184;8.216;2023-04-25T03:40:14;6.70;;;1.57;;
1206;SDS011;593;53.184;8.216;2023-04-25T03:42:39;7.73;;;1.90;;
1206;SDS011;593;53.184;8.216;2023-04-25T03:45:04;5.87;;;1.67;;
1206;SDS011;593;53.184;8.216;2023-04-25T03:47:30;6.60;;;2.93;;
1206;SDS011;593;53.184;8.216;2023-04-25T03:49:56;3.47;;;1.20;;
1206;SDS011;593;53.184;8.216;2023-04-25T03:52:21;9.90;;;1.40;;
1206;SDS011;593;53.184;8.216;2023-04-25T03:54:46;3.87;;;1.43;;
1206;SDS011;593;53.184;8.216;2023-04-25T03:57:11;13.70;;;2.73;;
1206;SDS011;593;53.184;8.216;2023-04-25T03:59:37;5.37;;;1.30;;
1206;SDS011;593;53.184;8.216;2023-04-25T04:02:02;6.53;;;1.30;;
1206;SDS011;593;53.184;8.216;2023-04-25T04:04:27;2.40;;;1.17;;
1206;SDS011;593;53.184;8.216;2023-04-25T04:06:53;3.80;;;0.90;;
1206;SDS011;593;53.184;8.216;2023-04-25T04:09:18;4.30;;;1.20;;
1206;SDS011;593;53.184;8.216;2023-04-25T04:11:44;4.55;;;1.45;;
1206;SDS011;593;53.184;8.216;2023-04-25T04:14:09;1.83;;;1.20;;
1206;SDS011;593;53.184;8.216;2023-04-25T04:16:35;4.90;;;1.30;;
1206;SDS011;593;53.184;8.216;2023-04-25T04:19:01;7.50;;;1.93;;
1206;SDS011;593;53.184;8.216;2023-04-25T04:21:26;11.17;;;1.77;;
1206;SDS011;593;53.184;8.216;2023-04-25T04:23:52;4.90;;;1.50;;
1206;SDS011;593;53.184;8.216;2023-04-25T04:26:17;3.37;;;1.00;;
1206;SDS011;593;53.184;8.216;2023-04-25T04:28:43;6.65;;;1.20;;
1206;SDS011;593;53.184;8.216;2023-04-25T04:31:09;2.20;;;0.90;;
1206;SDS011;593;53.184;8.216;2023-04-25T04:33:35;4.15;;;1.60;;
1206;SDS011;593;53.184;8.216;2023-04-25T04:36:01;4.85;;;1.60;;
1206;SDS011;593;53.184;8.216;2023-04-25T04:38:27;6.18;;;2.10;;
1206;SDS011;593;53.184;8.216;2023-04-25T04:40:53;6.55;;;1.52;;
1206;SDS011;593;53.184;8.216;2023-04-25T04:43:19;3.70;;;1.07;;
1206;SDS011;593;53.184;8.216;2023-04-25T04:45:44;9.07;;;1.33;;
1206;SDS011;593;53.184;8.216;2023-04-25T04:48:09;8.67;;;1.43;;
1206;SDS011;593;53.184;8.216;2023-04-25T04:50:36;1.27;;;1.00;;
1206;SDS011;593;53.184;8.216;2023-04-25T04:53:02;6.30;;;1.20;;
1206;SDS011;593;53.184;8.216;2023-04-25T04:55:29;5.80;;;1.00;;
1206;SDS011;593;53.184;8.216;2023-04-25T04:57:54;5.17;;;1.47;;
1206;SDS011;593;53.184;8.216;2023-04-25T05:00:19;5.10;;;1.20;;
1206;SDS011;593;53.184;8.216;2023-04-25T05:02:45;4.23;;;0.90;;
1206;SDS011;593;53.184;8.216;2023-04-25T05:05:11;7.70;;;1.37;;
1206;SDS011;593;53.184;8.216;2023-04-25T05:07:36;6.47;;;1.83;;
1206;SDS011;593;53.184;8.216;2023-04-25T05:10:01;3.80;;;1.00;;
1206;SDS011;593;53.184;8.216;2023-04-25T05:12:28;5.32;;;1.13;;
1206;SDS011;593;53.184;8.216;2023-04-25T05:14:53;5.00;;;1.40;;
1206;SDS011;593;53.184;8.216;2023-04-25T05:17:19;7.60;;;1.47;;
1206;SDS011;593;53.184;8.216;2023-04-25T05:19:44;4.40;;;1.53;;
1206;SDS011;593;53.184;8.216;2023-04-25T05:22:10;6.70;;;1.00;;
1206;SDS011;593;53.184;8.216;2023-04-25T05:24:35;5.80;;;1.27;;
1206;SDS011;593;53.184;8.216;2023-04-25T05:27:01;6.20;;;1.30;;
1206;SDS011;593;53.184;8.216;2023-04-25T05:29:27;5.03;;;1.30;;
1206;SDS011;593;53.184;8.216;2023-04-25T05:31:53;2.87;;;1.43;;
1206;SDS011;593;53.184;8.216;2023-04-25T05:34:20;2.25;;;1.10;;
1206;SDS011;593;53.184;8.216;2023-04-25T05:36:46;1.95;;;1.05;;
1206;SDS011;593;53.184;8.216;2023-04-25T05:39:13;4.45;;;1.20;;
1206;SDS011;593;53.184;8.216;2023-04-25T05:41:42;3.78;;;1.20;;
1206;SDS011;593;53.184;8.216;2023-04-25T05:44:07;5.80;;;1.27;;
1206;SDS011;593;53.184;8.216;2023-04-25T05:46:33;4.20;;;1.37;;
1206;SDS011;593;53.184;8.216;2023-04-25T05:48:58;6.07;;;1.40;;
1206;SDS011;593;53.184;8.216;2023-04-25T05:51:23;6.73;;;1.30;;
1206;SDS011;593;53.184;8.216;2023-04-25T05:53:49;7.40;;;1.67;;
1206;SDS011;593;53.184;8.216;2023-04-25T05:56:14;4.90;;;1.57;;
1206;SDS011;593;53.184;8.216;2023-04-25T05:58:39;10.77;;;1.80;;
1206;SDS011;593;53.184;8.216;2023-04-25T06:01:05;4.00;;;1.30;;
1206;SDS011;593;53.184;8.216;2023-04-25T06:03:30;1.80;;;1.20;;
1206;SDS011;593;53.184;8.216;2023-04-25T06:05:55;5.57;;;1.33;;
1206;SDS011;593;53.184;8.216;2023-04-25T06:08:21;7.87;;;1.70;;
1206;SDS011;593;53.184;8.216;2023-04-25T06:10:46;5.43;;;1.27;;
1206;SDS011;593;53.184;8.216;2023-04-25T06:13:11;6.60;;;1.27;;
1206;SDS011;593;53.184;8.216;2023-04-25T06:15:37;3.13;;;0.80;;
1206;SDS011;593;53.184;8.216;2023-04-25T06:18:02;1.93;;;1.33;;
1206;SDS011;593;53.184;8.216;2023-04-25T06:20:27;6.87;;;1.50;;
1206;SDS011;593;53.184;8.216;2023-04-25T06:22:53;2.53;;;1.00;;
1206;SDS011;593;53.184;8.216;2023-04-25T06:25:18;2.03;;;0.93;;
1206;SDS011;593;53.184;8.216;2023-04-25T06:27:44;8.50;;;1.37;;
1206;SDS011;593;53.184;8.216;2023-04-25T06:30:09;5.23;;;0.70;;
1206;SDS011;593;53.184;8.216;2023-04-25T06:32:36;3.70;;;1.00;;
1206;SDS011;593;53.184;8.216;2023-04-25T06:35:02;6.23;;;1.20;;
1206;SDS011;593;53.184;8.216;2023-04-25T06:37:28;6.23;;;1.83;;
1206;SDS011;593;53.184;8.216;2023-04-25T06:39:53;6.90;;;1.00;;
1206;SDS011;593;53.184;8.216;2023-04-25T06:42:18;2.50;;;1.00;;
1206;SDS011;593;53.184;8.216;2023-04-25T06:44:44;4.53;;;1.27;;
1206;SDS011;593;53.184;8.216;2023-04-25T06:47:09;1.00;;;0.90;;
1206;SDS011;593;53.184;8.216;2023-04-25T06:49:35;2.87;;;0.93;;
1206;SDS011;593;53.184;8.216;2023-04-25T06:52:00;2.67;;;0.90;;
1206;SDS011;593;53.184;8.216;2023-04-25T06:54:25;6.10;;;0.97;;
1206;SDS011;593;53.184;8.216;2023-04-25T06:56:52;5.85;;;1.30;;
1206;SDS011;593;53.184;8.216;2023-04-25T06:59:18;3.35;;;0.70;;
1206;SDS011;593;53.184;8.216;2023-04-25T07:01:43;6.70;;;1.23;;
1206;SDS011;593;53.184;8.216;2023-04-25T07:04:09;5.40;;;1.03;;
1206;SDS011;593;53.184;8.216;2023-04-25T07:06:35;3.17;;;0.63;;
1206;SDS011;593;53.184;8.216;2023-04-25T07:09:03;7.05;;;0.80;;
1206;SDS011;593;53.184;8.216;2023-04-25T07:11:28;1.57;;;1.47;;
1206;SDS011;593;53.184;8.216;2023-04-25T07:13:53;2.60;;;0.87;;
1206;SDS011;593;53.184;8.216;2023-04-25T07:16:19;3.43;;;0.80;;
1206;SDS011;593;53.184;8.216;2023-04-25T07:18:44;3.73;;;0.83;;
1206;SDS011;593;53.184;8.216;2023-04-25T07:21:09;4.13;;;1.00;;
1206;SDS011;593;53.184;8.216;2023-04-25T07:23:35;3.83;;;1.07;;
1206;SDS011;593;53.184;8.216;2023-04-25T07:26:00;4.13;;;1.00;;
1206;SDS011;593;53.184;8.216;2023-04-25T07:28:25;1.57;;;0.80;;
1206;SDS011;593;53.184;8.216;2023-04-25T07:30:50;7.73;;;0.70;;
1206;SDS011;593;53.184;8.216;2023-04-25T07:33:16;1.20;;;0.97;;
1206;SDS011;593;53.184;8.216;2023-04-25T07:35:42;6.67;;;0.80;;
1206;SDS011;593;53.184;8.216;2023-04-25T07:38:07;4.87;;;0.80;;
1206;SDS011;593;53.184;8.216;2023-04-25T07:40:33;9.03;;;1.13;;
1206;SDS011;593;53.184;8.216;2023-04-25T07:42:58;7.25;;;1.33;;
1206;SDS011;593;53.184;8.216;2023-04-25T07:45:24;2.57;;;1.63;;
1206;SDS011;593;53.184;8.216;2023-04-25T07:47:49;3.70;;;0.70;;
1206;SDS011;593;53.184;8.216;2023-04-25T07:50:15;5.00;;;1.70;;
1206;SDS011;593;53.184;8.216;2023-04-25T07:52:40;3.67;;;0.80;;
1206;SDS011;593;53.184;8.216;2023-04-25T07:55:05;4.33;;;0.60;;
1206;SDS011;593;53.184;8.216;2023-04-25T07:57:31;2.07;;;0.60;;
1206;SDS011;593;53.184;8.216;2023-04-25T07:59:56;1.90;;;0.70;;
1206;SDS011;593;53.184;8.216;2023-04-25T08:02:22;0.80;;;0.60;;
1206;SDS011;593;53.184;8.216;2023-04-25T08:04:47;0.70;;;0.60;;
1206;SDS011;593;53.184;8.216;2023-04-25T08:07:14;1.45;;;0.80;;
1206;SDS011;593;53.184;8.216;2023-04-25T08:09:39;1.53;;;0.70;;
1206;SDS011;593;53.184;8.216;2023-04-25T08:12:05;2.27;;;0.80;;
1206;SDS011;593;53.184;8.216;2023-04-25T08:14:30;0.70;;;0.50;;
1206;SDS011;593;53.184;8.216;2023-04-25T08:17:00;2.30;;;0.70;;
1206;SDS011;593;53.184;8.216;2023-04-25T08:19:28;0.70;;;0.50;;
1206;SDS011;593;53.184;8.216;2023-04-25T08:21:53;1.53;;;0.57;;
1206;SDS011;593;53.184;8.216;2023-04-25T08:24:20;2.38;;;1.00;;
1206;SDS011;593;53.184;8.216;2023-04-25T08:26:46;2.17;;;0.60;;
1206;SDS011;593;53.184;8.216;2023-04-25T08:29:11;4.83;;;1.13;;
1206;SDS011;593;53.184;8.216;2023-04-25T08:31:36;6.30;;;0.70;;
1206;SDS011;593;53.184;8.216;2023-04-25T08:34:02;1.30;;;1.10;;
1206;SDS011;593;53.184;8.216;2023-04-25T08:36:27;9.77;;;0.90;;
1206;SDS011;593;53.184;8.216;2023-04-25T08:38:53;3.90;;;1.43;;
1206;SDS011;593;53.184;8.216;2023-04-25T08:41:18;3.03;;;0.90;;
1206;SDS011;593;53.184;8.216;2023-04-25T08:43:45;1.50;;;0.60;;
1206;SDS011;593;53.184;8.216;2023-04-25T08:46:13;2.77;;;0.90;;
1206;SDS011;593;53.184;8.216;2023-04-25T08:48:42;4.57;;;0.63;;
1206;SDS011;593;53.184;8.216;2023-04-25T08:51:10;3.37;;;0.50;;
1206;SDS011;593;53.184;8.216;2023-04-25T08:53:47;1.95;;;0.85;;
1206;SDS011;593;53.184;8.216;2023-04-25T08:56:15;2.70;;;0.70;;
1206;SDS011;593;53.184;8.216;2023-04-25T08:58:42;1.10;;;0.70;;
1206;SDS011;593;53.184;8.216;2023-04-25T09:01:10;3.90;;;0.90;;
1206;SDS011;593;53.184;8.216;2023-04-25T09:03:36;2.80;;;0.70;;
1206;SDS011;593;53.184;8.216;2023-04-25T09:06:01;1.77;;;0.90;;
1206;SDS011;593;53.184;8.216;2023-04-25T09:08:28;0.93;;;0.80;;
1206;SDS011;593;53.184;8.216;2023-04-25T09:10:53;6.33;;;0.60;;
1206;SDS011;593;53.184;8.216;2023-04-25T09:13:25;2.80;;;0.80;;
1206;SDS011;593;53.184;8.216;2023-04-25T09:15:56;3.70;;;0.80;;
1206;SDS011;593;53.184;8.216;2023-04-25T09:18:29;3.23;;;1.53;;
1206;SDS011;593;53.184;8.216;2023-04-25T09:23:38;2.67;;;0.60;;
1206;SDS011;593;53.184;8.216;2023-04-25T09:26:09;0.60;;;0.50;;
1206;SDS011;593;53.184;8.216;2023-04-25T09:28:35;0.93;;;0.67;;
1206;SDS011;593;53.184;8.216;2023-04-25T09:31:01;2.60;;;0.90;;
1206;SDS011;593;53.184;8.216;2023-04-25T09:33:35;2.20;;;0.60;;
1206;SDS011;593;53.184;8.216;2023-04-25T09:36:07;1.50;;;0.43;;
1206;SDS011;593;53.184;8.216;2023-04-25T09:38:41;2.90;;;0.50;;
1206;SDS011;593;53.184;8.216;2023-04-25T09:41:08;1.00;;;0.50;;
1206;SDS011;593;53.184;8.216;2023-04-25T09:43:35;2.73;;;1.07;;
1206;SDS011;593;53.184;8.216;2023-04-25T09:46:00;2.35;;;0.80;;
1206;SDS011;593;53.184;8.216;2023-04-25T09:48:27;1.10;;;0.70;;
1206;SDS011;593;53.184;8.216;2023-04-25T09:53:42;2.63;;;0.60;;
1206;SDS011;593;53.184;8.216;2023-04-25T09:56:14;1.77;;;0.60;;
1206;SDS011;593;53.184;8.216;2023-04-25T09:58:41;1.47;;;0.70;;
1206;SDS011;593;53.184;8.216;2023-04-25T10:01:07;3.13;;;0.50;;
1206;SDS011;593;53.184;8.216;2023-04-25T10:03:34;1.92;;;1.35;;
1206;SDS011;593;53.184;8.216;2023-04-25T10:06:02;0.60;;;0.57;;
1206;SDS011;593;53.184;8.216;2023-04-25T10:08:32;0.60;;;0.50;;
1206;SDS011;593;53.184;8.216;2023-04-25T10:11:00;1.00;;;0.60;;
1206;SDS011;593;53.184;8.216;2023-04-25T10:13:27;0.80;;;0.80;;
1206;SDS011;593;53.184;8.216;2023-04-25T10:15:54;3.03;;;1.00;;
1206;SDS011;593;53.184;8.216;2023-04-25T10:18:20;3.20;;;0.50;;
1206;SDS011;593;53.184;8.216;2023-04-25T10:20:46;3.03;;;0.70;;
1206;SDS011;593;53.184;8.216;2023-04-25T10:23:13;0.70;;;0.60;;
1206;SDS011;593;53.184;8.216;2023-04-25T10:25:40;1.73;;;0.60;;
1206;SDS011;593;53.184;8.216;2023-04-25T10:28:06;2.90;;;0.68;;
1206;SDS011;593;53.184;8.216;2023-04-25T10:30:31;4.80;;;1.00;;
1206;SDS011;593;53.184;8.216;2023-04-25T10:32:58;2.10;;;0.70;;
1206;SDS011;593;53.184;8.216;2023-04-25T10:35:25;1.70;;;0.75;;
1206;SDS011;593;53.184;8.216;2023-04-25T10:38:05;1.93;;;0.80;;
1206;SDS011;593;53.184;8.216;2023-04-25T10:40:35;2.23;;;0.63;;
1206;SDS011;593;53.184;8.216;2023-04-25T10:46:01;3.30;;;0.60;;
1206;SDS011;593;53.184;8.216;2023-04-25T10:48:29;3.17;;;1.20;;
1206;SDS011;593;53.184;8.216;2023-04-25T10:51:10;2.30;;;0.70;;
1206;SDS011;593;53.184;8.216;2023-04-25T10:53:37;1.47;;;0.60;;
1206;SDS011;593;53.184;8.216;2023-04-25T10:56:36;1.20;;;0.57;;
1206;SDS011;593;53.184;8.216;2023-04-25T10:59:12;3.97;;;0.80;;
1206;SDS011;593;53.184;8.216;2023-04-25T11:01:39;1.83;;;0.90;;
1206;SDS011;593;53.184;8.216;2023-04-25T11:04:19;0.70;;;0.47;;
1206;SDS011;593;53.184;8.216;2023-04-25T11:09:47;2.85;;;0.75;;
1206;SDS011;593;53.184;8.216;2023-04-25T11:12:13;1.40;;;0.53;;
1206;SDS011;593;53.184;8.216;2023-04-25T11:14:39;3.13;;;0.80;;
1206;SDS011;593;53.184;8.216;2023-04-25T11:17:05;1.17;;;0.93;;
1206;SDS011;593;53.184;8.216;2023-04-25T11:19:31;7.50;;;0.90;;
1206;SDS011;593;53.184;8.216;2023-04-25T11:22:04;2.80;;;0.90;;
1206;SDS011;593;53.184;8.216;2023-04-25T11:24:30;3.43;;;0.70;;
1206;SDS011;593;53.184;8.216;2023-04-25T11:27:00;2.70;;;0.70;;
1206;SDS011;593;53.184;8.216;2023-04-25T11:29:27;4.47;;;0.90;;
1206;SDS011;593;53.184;8.216;2023-04-25T11:31:54;3.30;;;0.80;;
1206;SDS011;593;53.184;8.216;2023-04-25T11:34:23;0.77;;;0.50;;
1206;SDS011;593;53.184;8.216;2023-04-25T11:36:58;2.67;;;0.80;;
1206;SDS011;593;53.184;8.216;2023-04-25T11:39:24;2.27;;;0.60;;
1206;SDS011;593;53.184;8.216;2023-04-25T11:41:50;2.47;;;0.93;;
1206;SDS011;593;53.184;8.216;2023-04-25T11:44:16;2.17;;;1.00;;
1206;SDS011;593;53.184;8.216;2023-04-25T11:46:43;2.67;;;0.80;;
1206;SDS011;593;53.184;8.216;2023-04-25T11:49:08;2.10;;;0.70;;
1206;SDS011;593;53.184;8.216;2023-04-25T11:51:41;4.03;;;1.00;;
1206;SDS011;593;53.184;8.216;2023-04-25T11:54:09;2.77;;;0.80;;
1206;SDS011;593;53.184;8.216;2023-04-25T11:56:36;5.60;;;1.07;;
1206;SDS011;593;53.184;8.216;2023-04-25T11:59:03;1.50;;;0.60;;
1206;SDS011;593;53.184;8.216;2023-04-25T12:01:37;2.17;;;0.90;;
1206;SDS011;593;53.184;8.216;2023-04-25T12:04:10;2.73;;;0.60;;
1206;SDS011;593;53.184;8.216;2023-04-25T12:06:40;2.20;;;0.80;;
1206;SDS011;593;53.184;8.216;2023-04-25T12:09:07;1.57;;;0.80;;
1206;SDS011;593;53.184;8.216;2023-04-25T12:11:42;6.57;;;0.90;;
1206;SDS011;593;53.184;8.216;2023-04-25T12:14:08;5.40;;;0.90;;
1206;SDS011;593;53.184;8.216;2023-04-25T12:16:44;2.33;;;1.00;;
1206;SDS011;593;53.184;8.216;2023-04-25T12:19:13;2.70;;;1.00;;
1206;SDS011;593;53.184;8.216;2023-04-25T12:21:39;2.67;;;0.70;;
1206;SDS011;593;53.184;8.216;2023-04-25T12:26:53;2.93;;;0.60;;
1206;SDS011;593;53.184;8.216;2023-04-25T12:29:26;1.30;;;0.70;;
1206;SDS011;593;53.184;8.216;2023-04-25T12:31:53;3.00;;;0.80;;
1206;SDS011;593;53.184;8.216;2023-04-25T12:34:19;3.07;;;0.60;;
1206;SDS011;593;53.184;8.216;2023-04-25T12:36:46;1.57;;;0.60;;
1206;SDS011;593;53.184;8.216;2023-04-25T12:39:22;1.40;;;0.67;;
1206;SDS011;593;53.184;8.216;2023-04-25T12:41:48;5.43;;;0.80;;
1206;SDS011;593;53.184;8.216;2023-04-25T12:44:14;1.87;;;0.70;;
1206;SDS011;593;53.184;8.216;2023-04-25T12:46:40;2.30;;;0.50;;
1206;SDS011;593;53.184;8.216;2023-04-25T12:49:06;3.37;;;0.70;;
1206;SDS011;593;53.184;8.216;2023-04-25T12:51:35;2.50;;;1.47;;
1206;SDS011;593;53.184;8.216;2023-04-25T12:54:01;1.63;;;0.80;;
1206;SDS011;593;53.184;8.216;2023-04-25T12:56:27;1.20;;;0.60;;
1206;SDS011;593;53.184;8.216;2023-04-25T12:58:53;0.90;;;0.40;;
1206;SDS011;593;53.184;8.216;2023-04-25T13:01:19;3.63;;;0.70;;
1206;SDS011;593;53.184;8.216;2023-04-25T13:03:45;1.27;;;0.50;;
1206;SDS011;593;53.184;8.216;2023-04-25T13:06:11;6.53;;;0.60;;
1206;SDS011;593;53.184;8.216;2023-04-25T13:08:37;0.80;;;0.40;;
1206;SDS011;593;53.184;8.216;2023-04-25T13:11:03;0.60;;;0.50;;
1206;SDS011;593;53.184;8.216;2023-04-25T13:13:29;1.00;;;0.60;;
1206;SDS011;593;53.184;8.216;2023-04-25T13:15:56;1.83;;;0.50;;
1206;SDS011;593;53.184;8.216;2023-04-25T13:18:22;1.50;;;0.50;;
1206;SDS011;593;53.184;8.216;2023-04-25T13:20:51;1.70;;;0.57;;
1206;SDS011;593;53.184;8.216;2023-04-25T13:23:16;1.50;;;0.87;;
1206;SDS011;593;53.184;8.216;2023-04-25T13:25:41;3.83;;;0.70;;
1206;SDS011;593;53.184;8.216;2023-04-25T13:28:07;4.13;;;0.80;;
1206;SDS011;593;53.184;8.216;2023-04-25T13:30:32;1.00;;;0.60;;
1206;SDS011;593;53.184;8.216;2023-04-25T13:32:58;0.90;;;0.50;;
1206;SDS011;593;53.184;8.216;2023-04-25T13:35:28;1.10;;;0.63;;
1206;SDS011;593;53.184;8.216;2023-04-25T13:37:54;1.70;;;0.60;;
1206;SDS011;593;53.184;8.216;2023-04-25T13:40:20;4.90;;;0.90;;
1206;SDS011;593;53.184;8.216;2023-04-25T13:42:45;1.27;;;0.77;;
1206;SDS011;593;53.184;8.216;2023-04-25T13:45:11;7.60;;;1.33;;
1206;SDS011;593;53.184;8.216;2023-04-25T13:47:36;3.17;;;0.70;;
1206;SDS011;593;53.184;8.216;2023-04-25T13:50:02;1.80;;;0.50;;
1206;SDS011;593;53.184;8.216;2023-04-25T13:52:28;1.50;;;0.50;;
1206;SDS011;593;53.184;8.216;2023-04-25T13:54:54;2.40;;;0.60;;
1206;SDS011;593;53.184;8.216;2023-04-25T13:57:19;1.47;;;0.50;;
1206;SDS011;593;53.184;8.216;2023-04-25T13:59:45;1.90;;;0.60;;
1206;SDS011;593;53.184;8.216;2023-04-25T14:02:11;1.83;;;1.00;;
1206;SDS011;593;53.184;8.216;2023-04-25T14:04:37;1.20;;;0.60;;
1206;SDS011;593;53.184;8.216;2023-04-25T14:07:03;1.83;;;0.90;;
1206;SDS011;593;53.184;8.216;2023-04-25T14:09:29;5.23;;;0.80;;
1206;SDS011;593;53.184;8.216;2023-04-25T14:11:55;2.70;;;0.60;;
1206;SDS011;593;53.184;8.216;2023-04-25T14:14:21;1.00;;;0.50;;
1206;SDS011;593;53.184;8.216;2023-04-25T14:16:47;2.60;;;0.63;;
1206;SDS011;593;53.184;8.216;2023-04-25T14:19:13;2.93;;;0.80;;
1206;SDS011;593;53.184;8.216;2023-04-25T14:21:42;1.67;;;0.60;;
1206;SDS011;593;53.184;8.216;2023-04-25T14:24:10;2.17;;;1.00;;
1206;SDS011;593;53.184;8.216;2023-04-25T14:26:36;2.37;;;0.73;;
1206;SDS011;593;53.184;8.216;2023-04-25T14:29:03;2.70;;;0.90;;
1206;SDS011;593;53.184;8.216;2023-04-25T14:31:30;2.80;;;0.80;;
1206;SDS011;593;53.184;8.216;2023-04-25T14:33:56;1.77;;;0.80;;
1206;SDS011;593;53.184;8.216;2023-04-25T14:36:21;1.93;;;0.90;;
1206;SDS011;593;53.184;8.216;2023-04-25T14:38:47;1.43;;;0.97;;
1206;SDS011;593;53.184;8.216;2023-04-25T14:41:12;3.27;;;0.63;;
1206;SDS011;593;53.184;8.216;2023-04-25T14:43:37;2.50;;;0.70;;
1206;SDS011;593;53.184;8.216;2023-04-25T14:46:05;3.70;;;1.10;;
1206;SDS011;593;53.184;8.216;2023-04-25T14:48:31;4.97;;;1.97;;
1206;SDS011;593;53.184;8.216;2023-04-25T14:50:56;2.50;;;0.73;;
1206;SDS011;593;53.184;8.216;2023-04-25T14:53:22;1.47;;;0.80;;
1206;SDS011;593;53.184;8.216;2023-04-25T14:55:48;2.07;;;0.70;;
1206;SDS011;593;53.184;8.216;2023-04-25T14:58:13;3.40;;;0.60;;
1206;SDS011;593;53.184;8.216;2023-04-25T15:00:39;0.87;;;0.60;;
1206;SDS011;593;53.184;8.216;2023-04-25T15:03:04;3.03;;;0.70;;
1206;SDS011;593;53.184;8.216;2023-04-25T15:05:30;0.90;;;0.83;;
1206;SDS011;593;53.184;8.216;2023-04-25T15:07:55;1.53;;;0.60;;
1206;SDS011;593;53.184;8.216;2023-04-25T15:10:21;0.70;;;0.70;;
1206;SDS011;593;53.184;8.216;2023-04-25T15:12:47;3.53;;;0.70;;
1206;SDS011;593;53.184;8.216;2023-04-25T15:15:12;3.60;;;1.10;;
1206;SDS011;593;53.184;8.216;2023-04-25T15:17:38;1.60;;;0.60;;
1206;SDS011;593;53.184;8.216;2023-04-25T15:20:08;3.27;;;0.73;;
1206;SDS011;593;53.184;8.216;2023-04-25T15:22:35;5.23;;;0.70;;
1206;SDS011;593;53.184;8.216;2023-04-25T15:25:06;3.53;;;0.60;;
1206;SDS011;593;53.184;8.216;2023-04-25T15:27:33;2.37;;;0.63;;
1206;SDS011;593;53.184;8.216;2023-04-25T15:29:59;1.20;;;0.70;;
1206;SDS011;593;53.184;8.216;2023-04-25T15:32:25;2.93;;;0.57;;
1206;SDS011;593;53.184;8.216;2023-04-25T15:34:50;2.33;;;1.00;;
1206;SDS011;593;53.184;8.216;2023-04-25T15:37:16;1.33;;;0.70;;
1206;SDS011;593;53.184;8.216;2023-04-25T15:39:41;3.80;;;0.67;;